sensor_id;sensor_type;location;lat;lon;timestamp;P1;durP1;ratioP1;P2;durP2;ratioP2
65581;SDS011;52231;40.090;18.348;2023-07-29T00:01:34;12.88;;;4.30;;
65581;SDS011;52231;40.090;18.348;2023-07-29T00:04:03;12.00;;;3.70;;
65581;SDS011;52231;40.090;18.348;2023-07-29T00:06:32;10.77;;;3.60;;
65581;SDS011;52231;40.090;18.348;2023-07-29T00:09:00;9.18;;;3.80;;
65581;SDS011;52231;40.090;18.348;2023-07-29T00:11:29;9.55;;;3.60;;
65581;SDS011;52231;40.090;18.348;2023-07-29T00:14:00;9.50;;;3.70;;
65581;SDS011;52231;40.090;18.348;2023-07-29T00:16:29;9.65;;;3.67;;
65581;SDS011;52231;40.090;18.348;2023-07-29T00:18:58;11.68;;;3.85;;
65581;SDS011;52231;40.090;18.348;2023-07-29T00:23:55;9.43;;;3.83;;
65581;SDS011;52231;40.090;18.348;2023-07-29T00:26:24;12.93;;;5.20;;
65581;SDS011;52231;40.090;18.348;2023-07-29T00:28:55;17.67;;;7.95;;
65581;SDS011;52231;40.090;18.348;2023-07-29T00:31:24;18.80;;;7.35;;
65581;SDS011;52231;40.090;18.348;2023-07-29T00:33:53;17.98;;;7.47;;
65581;SDS011;52231;40.090;18.348;2023-07-29T00:38:50;22.25;;;6.10;;
65581;SDS011;52231;40.090;18.348;2023-07-29T00:41:22;13.75;;;5.00;;
65581;SDS011;52231;40.090;18.348;2023-07-29T00:43:53;13.70;;;4.60;;
65581;SDS011;52231;40.090;18.348;2023-07-29T00:46:22;11.05;;;4.47;;
65581;SDS011;52231;40.090;18.348;2023-07-29T00:48:52;10.70;;;4.32;;
65581;SDS011;52231;40.090;18.348;2023-07-29T00:51:20;10.60;;;4.45;;
65581;SDS011;52231;40.090;18.348;2023-07-29T00:53:51;13.32;;;4.28;;
65581;SDS011;52231;40.090;18.348;2023-07-29T00:56:19;12.27;;;4.35;;
65581;SDS011;52231;40.090;18.348;2023-07-29T00:58:48;11.55;;;4.18;;
65581;SDS011;52231;40.090;18.348;2023-07-29T01:06:22;11.00;;;4.40;;
65581;SDS011;52231;40.090;18.348;2023-07-29T01:12:09;9.63;;;3.70;;
65581;SDS011;52231;40.090;18.348;2023-07-29T01:14:47;12.02;;;3.88;;
65581;SDS011;52231;40.090;18.348;2023-07-29T01:17:29;10.18;;;4.05;;
65581;SDS011;52231;40.090;18.348;2023-07-29T01:20:17;10.65;;;4.10;;
65581;SDS011;52231;40.090;18.348;2023-07-29T01:22:48;13.88;;;3.80;;
65581;SDS011;52231;40.090;18.348;2023-07-29T01:27:46;8.88;;;3.78;;
65581;SDS011;52231;40.090;18.348;2023-07-29T01:30:16;8.98;;;3.78;;
65581;SDS011;52231;40.090;18.348;2023-07-29T01:35:28;12.30;;;4.22;;
65581;SDS011;52231;40.090;18.348;2023-07-29T01:38:08;12.82;;;4.15;;
65581;SDS011;52231;40.090;18.348;2023-07-29T01:40:42;10.57;;;4.13;;
65581;SDS011;52231;40.090;18.348;2023-07-29T01:43:11;11.07;;;3.78;;
65581;SDS011;52231;40.090;18.348;2023-07-29T01:55:12;11.18;;;4.28;;
65581;SDS011;52231;40.090;18.348;2023-07-29T01:57:40;11.93;;;4.00;;
65581;SDS011;52231;40.090;18.348;2023-07-29T02:00:09;12.48;;;4.78;;
65581;SDS011;52231;40.090;18.348;2023-07-29T02:02:41;10.90;;;4.30;;
65581;SDS011;52231;40.090;18.348;2023-07-29T02:05:09;10.27;;;4.20;;
65581;SDS011;52231;40.090;18.348;2023-07-29T02:07:37;11.43;;;4.07;;
65581;SDS011;52231;40.090;18.348;2023-07-29T02:12:33;11.18;;;4.63;;
65581;SDS011;52231;40.090;18.348;2023-07-29T02:15:02;11.90;;;4.80;;
65581;SDS011;52231;40.090;18.348;2023-07-29T02:17:31;12.38;;;4.78;;
65581;SDS011;52231;40.090;18.348;2023-07-29T02:19:59;12.10;;;4.78;;
65581;SDS011;52231;40.090;18.348;2023-07-29T02:22:28;11.43;;;4.72;;
65581;SDS011;52231;40.090;18.348;2023-07-29T02:24:56;11.25;;;4.38;;
65581;SDS011;52231;40.090;18.348;2023-07-29T02:27:24;10.52;;;4.85;;
65581;SDS011;52231;40.090;18.348;2023-07-29T02:29:54;13.07;;;4.97;;
65581;SDS011;52231;40.090;18.348;2023-07-29T02:32:22;10.65;;;4.80;;
65581;SDS011;52231;40.090;18.348;2023-07-29T02:34:50;13.00;;;4.63;;
65581;SDS011;52231;40.090;18.348;2023-07-29T02:37:18;13.77;;;4.70;;
65581;SDS011;52231;40.090;18.348;2023-07-29T02:39:47;12.23;;;4.82;;
65581;SDS011;52231;40.090;18.348;2023-07-29T02:42:15;11.38;;;4.55;;
65581;SDS011;52231;40.090;18.348;2023-07-29T02:44:43;11.93;;;5.03;;
65581;SDS011;52231;40.090;18.348;2023-07-29T02:47:11;9.95;;;4.93;;
65581;SDS011;52231;40.090;18.348;2023-07-29T02:49:39;11.35;;;4.75;;
65581;SDS011;52231;40.090;18.348;2023-07-29T02:52:07;11.00;;;4.68;;
65581;SDS011;52231;40.090;18.348;2023-07-29T02:54:35;12.30;;;5.00;;
65581;SDS011;52231;40.090;18.348;2023-07-29T02:57:04;13.27;;;5.50;;
65581;SDS011;52231;40.090;18.348;2023-07-29T02:59:32;10.82;;;5.15;;
65581;SDS011;52231;40.090;18.348;2023-07-29T03:02:01;15.40;;;4.70;;
65581;SDS011;52231;40.090;18.348;2023-07-29T03:07:50;10.73;;;4.47;;
65581;SDS011;52231;40.090;18.348;2023-07-29T03:15:08;12.30;;;4.90;;
65581;SDS011;52231;40.090;18.348;2023-07-29T03:17:54;10.68;;;4.63;;
65581;SDS011;52231;40.090;18.348;2023-07-29T03:20:23;12.15;;;4.93;;
65581;SDS011;52231;40.090;18.348;2023-07-29T03:22:51;11.68;;;4.78;;
65581;SDS011;52231;40.090;18.348;2023-07-29T03:25:19;9.88;;;4.18;;
65581;SDS011;52231;40.090;18.348;2023-07-29T03:27:47;13.32;;;4.70;;
65581;SDS011;52231;40.090;18.348;2023-07-29T03:30:20;12.98;;;4.57;;
65581;SDS011;52231;40.090;18.348;2023-07-29T03:32:49;12.23;;;5.00;;
65581;SDS011;52231;40.090;18.348;2023-07-29T03:37:46;16.15;;;5.00;;
65581;SDS011;52231;40.090;18.348;2023-07-29T03:40:15;17.65;;;5.32;;
65581;SDS011;52231;40.090;18.348;2023-07-29T03:42:43;19.02;;;5.70;;
65581;SDS011;52231;40.090;18.348;2023-07-29T03:45:11;12.57;;;4.93;;
65581;SDS011;52231;40.090;18.348;2023-07-29T03:47:39;19.67;;;5.60;;
65581;SDS011;52231;40.090;18.348;2023-07-29T03:50:07;14.27;;;5.95;;
65581;SDS011;52231;40.090;18.348;2023-07-29T03:52:36;15.70;;;5.93;;
65581;SDS011;52231;40.090;18.348;2023-07-29T03:55:04;14.93;;;6.35;;
65581;SDS011;52231;40.090;18.348;2023-07-29T03:57:33;16.90;;;6.22;;
65581;SDS011;52231;40.090;18.348;2023-07-29T04:00:01;13.38;;;5.55;;
65581;SDS011;52231;40.090;18.348;2023-07-29T04:02:30;10.88;;;5.03;;
65581;SDS011;52231;40.090;18.348;2023-07-29T04:04:59;12.95;;;4.95;;
65581;SDS011;52231;40.090;18.348;2023-07-29T04:07:27;13.18;;;5.10;;
65581;SDS011;52231;40.090;18.348;2023-07-29T04:09:55;14.90;;;5.00;;
65581;SDS011;52231;40.090;18.348;2023-07-29T04:12:24;13.32;;;5.13;;
65581;SDS011;52231;40.090;18.348;2023-07-29T04:14:52;13.57;;;5.90;;
65581;SDS011;52231;40.090;18.348;2023-07-29T04:17:20;12.27;;;5.22;;
65581;SDS011;52231;40.090;18.348;2023-07-29T04:19:48;13.45;;;5.28;;
65581;SDS011;52231;40.090;18.348;2023-07-29T04:22:18;11.52;;;5.70;;
65581;SDS011;52231;40.090;18.348;2023-07-29T04:24:47;16.20;;;5.43;;
65581;SDS011;52231;40.090;18.348;2023-07-29T04:27:15;13.02;;;5.93;;
65581;SDS011;52231;40.090;18.348;2023-07-29T04:29:43;15.57;;;6.40;;
65581;SDS011;52231;40.090;18.348;2023-07-29T04:32:11;13.70;;;6.68;;
65581;SDS011;52231;40.090;18.348;2023-07-29T04:34:42;15.68;;;7.32;;
65581;SDS011;52231;40.090;18.348;2023-07-29T04:39:38;17.85;;;6.85;;
65581;SDS011;52231;40.090;18.348;2023-07-29T04:42:06;16.58;;;6.93;;
65581;SDS011;52231;40.090;18.348;2023-07-29T04:47:02;15.30;;;5.68;;
65581;SDS011;52231;40.090;18.348;2023-07-29T04:49:31;19.63;;;5.82;;
65581;SDS011;52231;40.090;18.348;2023-07-29T04:51:59;12.60;;;5.32;;
65581;SDS011;52231;40.090;18.348;2023-07-29T04:54:27;15.65;;;5.80;;
65581;SDS011;52231;40.090;18.348;2023-07-29T04:56:55;17.45;;;5.78;;
65581;SDS011;52231;40.090;18.348;2023-07-29T04:59:23;15.27;;;5.60;;
65581;SDS011;52231;40.090;18.348;2023-07-29T05:01:51;16.45;;;5.90;;
65581;SDS011;52231;40.090;18.348;2023-07-29T05:04:21;17.58;;;6.05;;
65581;SDS011;52231;40.090;18.348;2023-07-29T05:06:49;16.77;;;6.60;;
65581;SDS011;52231;40.090;18.348;2023-07-29T05:09:18;24.92;;;9.30;;
65581;SDS011;52231;40.090;18.348;2023-07-29T05:11:50;27.58;;;9.82;;
65581;SDS011;52231;40.090;18.348;2023-07-29T05:16:46;24.00;;;10.15;;
65581;SDS011;52231;40.090;18.348;2023-07-29T05:19:15;27.15;;;9.35;;
65581;SDS011;52231;40.090;18.348;2023-07-29T05:21:43;18.92;;;7.35;;
65581;SDS011;52231;40.090;18.348;2023-07-29T05:24:13;18.73;;;7.22;;
65581;SDS011;52231;40.090;18.348;2023-07-29T05:26:41;20.08;;;6.32;;
65581;SDS011;52231;40.090;18.348;2023-07-29T05:31:37;22.23;;;6.22;;
65581;SDS011;52231;40.090;18.348;2023-07-29T05:34:06;13.27;;;5.28;;
65581;SDS011;52231;40.090;18.348;2023-07-29T05:36:35;14.55;;;4.80;;
65581;SDS011;52231;40.090;18.348;2023-07-29T05:41:31;15.05;;;4.22;;
65581;SDS011;52231;40.090;18.348;2023-07-29T05:44:00;15.05;;;4.30;;
65581;SDS011;52231;40.090;18.348;2023-07-29T05:46:28;17.60;;;4.18;;
65581;SDS011;52231;40.090;18.348;2023-07-29T05:48:56;14.82;;;3.97;;
65581;SDS011;52231;40.090;18.348;2023-07-29T05:51:25;14.00;;;3.88;;
65581;SDS011;52231;40.090;18.348;2023-07-29T05:56:21;11.10;;;3.63;;
65581;SDS011;52231;40.090;18.348;2023-07-29T05:58:51;15.90;;;3.80;;
65581;SDS011;52231;40.090;18.348;2023-07-29T06:01:20;13.07;;;3.60;;
65581;SDS011;52231;40.090;18.348;2023-07-29T06:03:49;9.70;;;3.25;;
65581;SDS011;52231;40.090;18.348;2023-07-29T06:06:17;8.93;;;2.90;;
65581;SDS011;52231;40.090;18.348;2023-07-29T06:08:46;10.10;;;2.97;;
65581;SDS011;52231;40.090;18.348;2023-07-29T06:11:14;10.05;;;2.90;;
65581;SDS011;52231;40.090;18.348;2023-07-29T06:13:42;10.85;;;3.10;;
65581;SDS011;52231;40.090;18.348;2023-07-29T06:16:10;12.23;;;3.20;;
65581;SDS011;52231;40.090;18.348;2023-07-29T06:18:41;15.82;;;2.88;;
65581;SDS011;52231;40.090;18.348;2023-07-29T06:21:09;12.40;;;3.08;;
65581;SDS011;52231;40.090;18.348;2023-07-29T06:23:39;10.35;;;2.70;;
65581;SDS011;52231;40.090;18.348;2023-07-29T06:26:08;10.15;;;2.70;;
65581;SDS011;52231;40.090;18.348;2023-07-29T06:28:36;7.93;;;2.72;;
65581;SDS011;52231;40.090;18.348;2023-07-29T06:31:04;11.52;;;3.10;;
65581;SDS011;52231;40.090;18.348;2023-07-29T06:33:32;12.23;;;2.53;;
65581;SDS011;52231;40.090;18.348;2023-07-29T06:36:00;10.52;;;2.80;;
65581;SDS011;52231;40.090;18.348;2023-07-29T06:38:29;10.88;;;2.92;;
65581;SDS011;52231;40.090;18.348;2023-07-29T06:40:57;10.15;;;2.72;;
65581;SDS011;52231;40.090;18.348;2023-07-29T06:43:25;12.90;;;2.88;;
65581;SDS011;52231;40.090;18.348;2023-07-29T06:45:55;10.25;;;2.70;;
65581;SDS011;52231;40.090;18.348;2023-07-29T06:48:24;8.52;;;2.70;;
65581;SDS011;52231;40.090;18.348;2023-07-29T06:50:52;12.80;;;2.75;;
65581;SDS011;52231;40.090;18.348;2023-07-29T06:53:22;11.13;;;2.72;;
65581;SDS011;52231;40.090;18.348;2023-07-29T06:55:50;9.88;;;3.15;;
65581;SDS011;52231;40.090;18.348;2023-07-29T06:58:19;10.50;;;3.15;;
65581;SDS011;52231;40.090;18.348;2023-07-29T07:00:47;9.30;;;2.60;;
65581;SDS011;52231;40.090;18.348;2023-07-29T07:03:15;9.82;;;3.03;;
65581;SDS011;52231;40.090;18.348;2023-07-29T07:05:43;9.85;;;2.90;;
65581;SDS011;52231;40.090;18.348;2023-07-29T07:08:11;10.65;;;2.63;;
65581;SDS011;52231;40.090;18.348;2023-07-29T07:10:39;7.38;;;2.38;;
65581;SDS011;52231;40.090;18.348;2023-07-29T07:13:07;7.85;;;2.40;;
65581;SDS011;52231;40.090;18.348;2023-07-29T07:15:35;8.90;;;2.63;;
65581;SDS011;52231;40.090;18.348;2023-07-29T07:18:03;12.32;;;3.00;;
65581;SDS011;52231;40.090;18.348;2023-07-29T07:20:32;9.65;;;3.22;;
65581;SDS011;52231;40.090;18.348;2023-07-29T07:23:00;10.45;;;2.72;;
65581;SDS011;52231;40.090;18.348;2023-07-29T07:25:28;9.48;;;2.95;;
65581;SDS011;52231;40.090;18.348;2023-07-29T07:27:56;6.53;;;2.38;;
65581;SDS011;52231;40.090;18.348;2023-07-29T07:30:24;7.20;;;2.60;;
65581;SDS011;52231;40.090;18.348;2023-07-29T07:32:52;7.55;;;2.70;;
65581;SDS011;52231;40.090;18.348;2023-07-29T07:35:20;7.13;;;2.88;;
65581;SDS011;52231;40.090;18.348;2023-07-29T07:37:49;8.27;;;2.70;;
65581;SDS011;52231;40.090;18.348;2023-07-29T07:40:17;10.07;;;3.00;;
65581;SDS011;52231;40.090;18.348;2023-07-29T07:42:46;6.90;;;2.58;;
65581;SDS011;52231;40.090;18.348;2023-07-29T07:45:14;6.15;;;2.58;;
65581;SDS011;52231;40.090;18.348;2023-07-29T07:47:42;7.28;;;2.72;;
65581;SDS011;52231;40.090;18.348;2023-07-29T07:50:10;9.80;;;2.50;;
65581;SDS011;52231;40.090;18.348;2023-07-29T07:52:38;10.50;;;2.80;;
65581;SDS011;52231;40.090;18.348;2023-07-29T07:55:07;8.70;;;2.78;;
65581;SDS011;52231;40.090;18.348;2023-07-29T07:57:35;8.40;;;2.83;;
65581;SDS011;52231;40.090;18.348;2023-07-29T08:00:03;6.95;;;2.42;;
65581;SDS011;52231;40.090;18.348;2023-07-29T08:02:39;10.32;;;2.67;;
65581;SDS011;52231;40.090;18.348;2023-07-29T08:05:07;9.38;;;2.90;;
65581;SDS011;52231;40.090;18.348;2023-07-29T08:07:35;7.05;;;2.50;;
65581;SDS011;52231;40.090;18.348;2023-07-29T08:10:05;8.50;;;2.90;;
65581;SDS011;52231;40.090;18.348;2023-07-29T08:12:34;9.00;;;2.97;;
65581;SDS011;52231;40.090;18.348;2023-07-29T08:15:03;12.63;;;3.63;;
65581;SDS011;52231;40.090;18.348;2023-07-29T08:17:33;7.53;;;2.80;;
65581;SDS011;52231;40.090;18.348;2023-07-29T08:20:01;8.30;;;2.90;;
65581;SDS011;52231;40.090;18.348;2023-07-29T08:22:32;9.05;;;3.30;;
65581;SDS011;52231;40.090;18.348;2023-07-29T08:25:26;8.63;;;2.78;;
65581;SDS011;52231;40.090;18.348;2023-07-29T08:27:56;6.65;;;2.60;;
65581;SDS011;52231;40.090;18.348;2023-07-29T08:30:24;6.07;;;2.53;;
65581;SDS011;52231;40.090;18.348;2023-07-29T08:32:52;7.18;;;2.72;;
65581;SDS011;52231;40.090;18.348;2023-07-29T08:35:20;6.03;;;2.35;;
65581;SDS011;52231;40.090;18.348;2023-07-29T08:37:48;9.68;;;2.72;;
65581;SDS011;52231;40.090;18.348;2023-07-29T08:40:17;8.32;;;2.70;;
65581;SDS011;52231;40.090;18.348;2023-07-29T08:42:45;10.05;;;3.63;;
65581;SDS011;52231;40.090;18.348;2023-07-29T08:45:15;7.63;;;2.63;;
65581;SDS011;52231;40.090;18.348;2023-07-29T08:47:45;8.07;;;2.50;;
65581;SDS011;52231;40.090;18.348;2023-07-29T08:50:15;8.00;;;2.70;;
65581;SDS011;52231;40.090;18.348;2023-07-29T08:52:43;8.77;;;2.92;;
65581;SDS011;52231;40.090;18.348;2023-07-29T09:04:44;9.82;;;4.20;;
65581;SDS011;52231;40.090;18.348;2023-07-29T09:11:30;5.95;;;2.33;;
65581;SDS011;52231;40.090;18.348;2023-07-29T09:13:58;6.13;;;2.50;;
65581;SDS011;52231;40.090;18.348;2023-07-29T09:16:26;6.95;;;2.90;;
65581;SDS011;52231;40.090;18.348;2023-07-29T09:18:54;7.32;;;2.50;;
65581;SDS011;52231;40.090;18.348;2023-07-29T09:21:25;10.82;;;3.10;;
65581;SDS011;52231;40.090;18.348;2023-07-29T09:23:54;9.55;;;2.83;;
65581;SDS011;52231;40.090;18.348;2023-07-29T09:26:23;6.22;;;2.33;;
65581;SDS011;52231;40.090;18.348;2023-07-29T09:28:55;7.13;;;2.58;;
65581;SDS011;52231;40.090;18.348;2023-07-29T09:31:25;7.20;;;2.63;;
65581;SDS011;52231;40.090;18.348;2023-07-29T09:33:58;7.47;;;2.50;;
65581;SDS011;52231;40.090;18.348;2023-07-29T09:36:33;5.45;;;2.47;;
65581;SDS011;52231;40.090;18.348;2023-07-29T09:39:01;6.60;;;2.42;;
65581;SDS011;52231;40.090;18.348;2023-07-29T09:41:30;5.60;;;2.28;;
65581;SDS011;52231;40.090;18.348;2023-07-29T09:43:59;6.35;;;2.60;;
65581;SDS011;52231;40.090;18.348;2023-07-29T09:46:37;6.47;;;2.40;;
65581;SDS011;52231;40.090;18.348;2023-07-29T09:49:06;5.20;;;2.30;;
65581;SDS011;52231;40.090;18.348;2023-07-29T09:51:38;6.28;;;2.55;;
65581;SDS011;52231;40.090;18.348;2023-07-29T09:54:07;5.07;;;2.30;;
65581;SDS011;52231;40.090;18.348;2023-07-29T09:56:39;4.78;;;2.25;;
65581;SDS011;52231;40.090;18.348;2023-07-29T09:59:29;6.03;;;2.25;;
65581;SDS011;52231;40.090;18.348;2023-07-29T10:02:04;4.97;;;2.35;;
65581;SDS011;52231;40.090;18.348;2023-07-29T10:04:33;7.50;;;2.47;;
65581;SDS011;52231;40.090;18.348;2023-07-29T10:07:03;6.25;;;2.50;;
65581;SDS011;52231;40.090;18.348;2023-07-29T10:09:32;8.90;;;2.28;;
65581;SDS011;52231;40.090;18.348;2023-07-29T10:12:01;6.40;;;2.50;;
65581;SDS011;52231;40.090;18.348;2023-07-29T10:14:31;5.03;;;2.30;;
65581;SDS011;52231;40.090;18.348;2023-07-29T10:17:00;6.32;;;2.33;;
65581;SDS011;52231;40.090;18.348;2023-07-29T10:19:29;8.45;;;2.72;;
65581;SDS011;52231;40.090;18.348;2023-07-29T10:21:59;5.38;;;2.40;;
65581;SDS011;52231;40.090;18.348;2023-07-29T10:24:30;6.00;;;2.30;;
65581;SDS011;52231;40.090;18.348;2023-07-29T10:27:01;5.68;;;2.70;;
65581;SDS011;52231;40.090;18.348;2023-07-29T10:29:32;5.72;;;2.15;;
65581;SDS011;52231;40.090;18.348;2023-07-29T10:32:05;5.22;;;2.50;;
65581;SDS011;52231;40.090;18.348;2023-07-29T10:34:35;6.05;;;2.38;;
65581;SDS011;52231;40.090;18.348;2023-07-29T10:37:04;6.05;;;2.53;;
65581;SDS011;52231;40.090;18.348;2023-07-29T10:39:44;5.32;;;2.28;;
65581;SDS011;52231;40.090;18.348;2023-07-29T10:42:22;5.65;;;2.33;;
65581;SDS011;52231;40.090;18.348;2023-07-29T10:44:51;6.28;;;2.53;;
65581;SDS011;52231;40.090;18.348;2023-07-29T10:47:24;4.63;;;2.30;;
65581;SDS011;52231;40.090;18.348;2023-07-29T10:49:58;6.10;;;2.15;;
65581;SDS011;52231;40.090;18.348;2023-07-29T10:52:30;5.30;;;2.33;;
65581;SDS011;52231;40.090;18.348;2023-07-29T10:55:03;7.50;;;2.45;;
65581;SDS011;52231;40.090;18.348;2023-07-29T10:57:49;4.95;;;2.25;;
65581;SDS011;52231;40.090;18.348;2023-07-29T11:00:21;6.20;;;2.22;;
65581;SDS011;52231;40.090;18.348;2023-07-29T11:02:59;9.65;;;2.35;;
65581;SDS011;52231;40.090;18.348;2023-07-29T11:05:51;5.10;;;2.10;;
65581;SDS011;52231;40.090;18.348;2023-07-29T11:08:37;7.25;;;2.40;;
65581;SDS011;52231;40.090;18.348;2023-07-29T11:11:06;5.75;;;2.25;;
65581;SDS011;52231;40.090;18.348;2023-07-29T11:16:09;7.70;;;2.83;;
65581;SDS011;52231;40.090;18.348;2023-07-29T11:18:43;9.02;;;2.47;;
65581;SDS011;52231;40.090;18.348;2023-07-29T11:21:13;8.68;;;2.50;;
65581;SDS011;52231;40.090;18.348;2023-07-29T11:23:42;6.72;;;2.40;;
65581;SDS011;52231;40.090;18.348;2023-07-29T11:26:10;6.15;;;2.65;;
65581;SDS011;52231;40.090;18.348;2023-07-29T11:28:38;8.20;;;2.50;;
65581;SDS011;52231;40.090;18.348;2023-07-29T11:31:07;5.45;;;2.40;;
65581;SDS011;52231;40.090;18.348;2023-07-29T11:33:38;7.68;;;2.60;;
65581;SDS011;52231;40.090;18.348;2023-07-29T11:36:16;6.82;;;2.22;;
65581;SDS011;52231;40.090;18.348;2023-07-29T11:38:45;6.43;;;2.55;;
65581;SDS011;52231;40.090;18.348;2023-07-29T11:41:18;7.00;;;2.22;;
65581;SDS011;52231;40.090;18.348;2023-07-29T11:43:48;7.20;;;2.40;;
65581;SDS011;52231;40.090;18.348;2023-07-29T11:46:20;5.88;;;2.30;;
65581;SDS011;52231;40.090;18.348;2023-07-29T11:48:49;5.85;;;2.35;;
65581;SDS011;52231;40.090;18.348;2023-07-29T11:51:18;5.50;;;2.13;;
65581;SDS011;52231;40.090;18.348;2023-07-29T11:53:46;6.05;;;2.50;;
65581;SDS011;52231;40.090;18.348;2023-07-29T11:56:15;6.13;;;2.10;;
65581;SDS011;52231;40.090;18.348;2023-07-29T11:58:44;6.40;;;1.90;;
65581;SDS011;52231;40.090;18.348;2023-07-29T12:01:12;4.93;;;2.33;;
65581;SDS011;52231;40.090;18.348;2023-07-29T12:03:40;7.25;;;2.30;;
65581;SDS011;52231;40.090;18.348;2023-07-29T12:06:10;20.75;;;11.65;;
65581;SDS011;52231;40.090;18.348;2023-07-29T12:08:39;9.48;;;4.07;;
65581;SDS011;52231;40.090;18.348;2023-07-29T12:11:10;6.78;;;2.45;;
65581;SDS011;52231;40.090;18.348;2023-07-29T12:13:38;5.60;;;2.45;;
65581;SDS011;52231;40.090;18.348;2023-07-29T12:16:09;4.22;;;2.35;;
65581;SDS011;52231;40.090;18.348;2023-07-29T12:18:37;5.50;;;2.50;;
65581;SDS011;52231;40.090;18.348;2023-07-29T12:21:05;4.85;;;2.33;;
65581;SDS011;52231;40.090;18.348;2023-07-29T12:23:33;7.43;;;2.50;;
65581;SDS011;52231;40.090;18.348;2023-07-29T12:26:01;5.05;;;2.30;;
65581;SDS011;52231;40.090;18.348;2023-07-29T12:28:30;8.85;;;2.60;;
65581;SDS011;52231;40.090;18.348;2023-07-29T12:30:58;7.13;;;2.38;;
65581;SDS011;52231;40.090;18.348;2023-07-29T12:33:36;7.72;;;2.78;;
65581;SDS011;52231;40.090;18.348;2023-07-29T12:36:11;5.65;;;2.50;;
65581;SDS011;52231;40.090;18.348;2023-07-29T12:38:42;7.40;;;2.50;;
65581;SDS011;52231;40.090;18.348;2023-07-29T12:41:11;6.22;;;2.50;;
65581;SDS011;52231;40.090;18.348;2023-07-29T12:43:40;6.00;;;2.67;;
65581;SDS011;52231;40.090;18.348;2023-07-29T12:46:08;7.70;;;2.50;;
65581;SDS011;52231;40.090;18.348;2023-07-29T12:48:36;7.28;;;2.60;;
65581;SDS011;52231;40.090;18.348;2023-07-29T12:51:04;5.40;;;2.47;;
65581;SDS011;52231;40.090;18.348;2023-07-29T12:53:32;5.97;;;2.50;;
65581;SDS011;52231;40.090;18.348;2023-07-29T12:56:01;6.90;;;2.83;;
65581;SDS011;52231;40.090;18.348;2023-07-29T12:58:29;7.43;;;2.50;;
65581;SDS011;52231;40.090;18.348;2023-07-29T13:00:57;6.13;;;2.38;;
65581;SDS011;52231;40.090;18.348;2023-07-29T13:03:25;6.13;;;2.30;;
65581;SDS011;52231;40.090;18.348;2023-07-29T13:05:55;7.00;;;2.40;;
65581;SDS011;52231;40.090;18.348;2023-07-29T13:08:23;6.25;;;2.33;;
65581;SDS011;52231;40.090;18.348;2023-07-29T13:10:53;6.32;;;2.47;;
65581;SDS011;52231;40.090;18.348;2023-07-29T13:13:21;4.72;;;2.17;;
65581;SDS011;52231;40.090;18.348;2023-07-29T13:15:49;7.35;;;2.85;;
65581;SDS011;52231;40.090;18.348;2023-07-29T13:18:17;5.80;;;2.30;;
65581;SDS011;52231;40.090;18.348;2023-07-29T13:20:46;6.40;;;2.40;;
65581;SDS011;52231;40.090;18.348;2023-07-29T13:23:14;5.72;;;2.30;;
65581;SDS011;52231;40.090;18.348;2023-07-29T13:25:42;8.00;;;2.45;;
65581;SDS011;52231;40.090;18.348;2023-07-29T13:28:10;6.72;;;2.35;;
65581;SDS011;52231;40.090;18.348;2023-07-29T13:30:40;7.22;;;2.58;;
65581;SDS011;52231;40.090;18.348;2023-07-29T13:33:08;4.95;;;2.20;;
65581;SDS011;52231;40.090;18.348;2023-07-29T13:35:39;5.72;;;2.22;;
65581;SDS011;52231;40.090;18.348;2023-07-29T13:38:07;5.18;;;2.22;;
65581;SDS011;52231;40.090;18.348;2023-07-29T13:40:39;7.65;;;2.40;;
65581;SDS011;52231;40.090;18.348;2023-07-29T13:43:07;6.18;;;2.55;;
65581;SDS011;52231;40.090;18.348;2023-07-29T13:45:35;6.47;;;2.10;;
65581;SDS011;52231;40.090;18.348;2023-07-29T13:48:04;6.35;;;2.33;;
65581;SDS011;52231;40.090;18.348;2023-07-29T13:50:32;7.07;;;2.30;;
65581;SDS011;52231;40.090;18.348;2023-07-29T13:53:00;6.28;;;2.67;;
65581;SDS011;52231;40.090;18.348;2023-07-29T13:55:28;6.15;;;2.33;;
65581;SDS011;52231;40.090;18.348;2023-07-29T13:57:56;5.28;;;2.30;;
65581;SDS011;52231;40.090;18.348;2023-07-29T14:00:24;5.65;;;2.30;;
65581;SDS011;52231;40.090;18.348;2023-07-29T14:02:52;8.60;;;2.45;;
65581;SDS011;52231;40.090;18.348;2023-07-29T14:05:20;4.72;;;2.10;;
65581;SDS011;52231;40.090;18.348;2023-07-29T14:07:48;4.85;;;2.25;;
65581;SDS011;52231;40.090;18.348;2023-07-29T14:10:17;6.28;;;2.40;;
65581;SDS011;52231;40.090;18.348;2023-07-29T14:12:45;4.05;;;2.17;;
65581;SDS011;52231;40.090;18.348;2023-07-29T14:15:13;5.93;;;2.38;;
65581;SDS011;52231;40.090;18.348;2023-07-29T14:17:47;3.97;;;2.00;;
65581;SDS011;52231;40.090;18.348;2023-07-29T14:20:15;8.85;;;2.50;;
65581;SDS011;52231;40.090;18.348;2023-07-29T14:22:44;8.10;;;2.30;;
65581;SDS011;52231;40.090;18.348;2023-07-29T14:25:12;8.82;;;2.40;;
65581;SDS011;52231;40.090;18.348;2023-07-29T14:27:41;5.70;;;2.45;;
65581;SDS011;52231;40.090;18.348;2023-07-29T14:30:09;5.95;;;2.45;;
65581;SDS011;52231;40.090;18.348;2023-07-29T14:32:41;7.55;;;2.47;;
65581;SDS011;52231;40.090;18.348;2023-07-29T14:35:09;7.75;;;2.40;;
65581;SDS011;52231;40.090;18.348;2023-07-29T14:37:37;10.43;;;2.70;;
65581;SDS011;52231;40.090;18.348;2023-07-29T14:40:06;8.57;;;2.53;;
65581;SDS011;52231;40.090;18.348;2023-07-29T14:42:34;6.28;;;2.40;;
65581;SDS011;52231;40.090;18.348;2023-07-29T14:45:03;7.50;;;2.40;;
65581;SDS011;52231;40.090;18.348;2023-07-29T14:47:31;6.60;;;2.33;;
65581;SDS011;52231;40.090;18.348;2023-07-29T14:50:02;5.25;;;2.30;;
65581;SDS011;52231;40.090;18.348;2023-07-29T14:52:30;5.47;;;2.45;;
65581;SDS011;52231;40.090;18.348;2023-07-29T14:54:58;8.90;;;2.50;;
65581;SDS011;52231;40.090;18.348;2023-07-29T14:57:26;7.45;;;2.70;;
65581;SDS011;52231;40.090;18.348;2023-07-29T14:59:56;6.38;;;2.53;;
65581;SDS011;52231;40.090;18.348;2023-07-29T15:02:24;9.20;;;2.75;;
65581;SDS011;52231;40.090;18.348;2023-07-29T15:04:52;7.32;;;2.53;;
65581;SDS011;52231;40.090;18.348;2023-07-29T15:07:21;6.00;;;2.55;;
65581;SDS011;52231;40.090;18.348;2023-07-29T15:09:49;5.97;;;2.72;;
65581;SDS011;52231;40.090;18.348;2023-07-29T15:12:18;7.32;;;2.50;;
65581;SDS011;52231;40.090;18.348;2023-07-29T15:14:46;6.07;;;2.58;;
65581;SDS011;52231;40.090;18.348;2023-07-29T15:17:15;10.57;;;2.65;;
65581;SDS011;52231;40.090;18.348;2023-07-29T15:19:43;6.45;;;2.60;;
65581;SDS011;52231;40.090;18.348;2023-07-29T15:22:11;6.00;;;2.38;;
65581;SDS011;52231;40.090;18.348;2023-07-29T15:24:39;5.65;;;2.50;;
65581;SDS011;52231;40.090;18.348;2023-07-29T15:27:10;7.15;;;2.42;;
65581;SDS011;52231;40.090;18.348;2023-07-29T15:29:39;5.75;;;2.30;;
65581;SDS011;52231;40.090;18.348;2023-07-29T15:32:07;7.53;;;2.40;;
65581;SDS011;52231;40.090;18.348;2023-07-29T15:34:35;8.77;;;2.53;;
65581;SDS011;52231;40.090;18.348;2023-07-29T15:37:03;8.10;;;2.60;;
65581;SDS011;52231;40.090;18.348;2023-07-29T15:39:32;6.82;;;2.58;;
65581;SDS011;52231;40.090;18.348;2023-07-29T15:42:00;6.70;;;2.55;;
65581;SDS011;52231;40.090;18.348;2023-07-29T15:44:28;6.70;;;2.53;;
65581;SDS011;52231;40.090;18.348;2023-07-29T15:46:56;5.72;;;2.60;;
65581;SDS011;52231;40.090;18.348;2023-07-29T15:49:24;7.10;;;2.70;;
65581;SDS011;52231;40.090;18.348;2023-07-29T15:51:52;7.60;;;2.50;;
65581;SDS011;52231;40.090;18.348;2023-07-29T15:54:23;7.20;;;2.40;;